createdAt,value
2018-12-05T00:00:27.938Z,17.60
2018-12-05T00:02:57.294Z,17.60
2018-12-05T00:05:26.493Z,17.60
2018-12-05T00:07:55.770Z,17.60
2018-12-05T00:10:25.069Z,17.60
2018-12-05T00:12:54.353Z,17.50
2018-12-05T00:15:24.495Z,17.50
2018-12-05T00:17:54.612Z,17.50
2018-12-05T00:20:25.362Z,17.50
2018-12-05T00:22:54.646Z,17.40
2018-12-05T00:25:23.926Z,17.40
2018-12-05T00:27:53.310Z,17.40
2018-12-05T00:30:22.615Z,17.40
2018-12-05T00:32:51.963Z,17.40
2018-12-05T00:35:21.239Z,17.40
2018-12-05T00:37:50.588Z,17.40
2018-12-05T00:40:19.846Z,17.30
2018-12-05T00:42:53.263Z,17.30
2018-12-05T00:45:25.678Z,17.30
2018-12-05T00:47:54.980Z,17.30
2018-12-05T00:50:24.320Z,17.30
2018-12-05T00:52:53.619Z,17.20
2018-12-05T00:55:22.867Z,17.20
2018-12-05T00:57:52.224Z,17.30
2018-12-05T01:00:21.521Z,17.30
2018-12-05T01:02:50.798Z,17.30
2018-12-05T01:05:28.765Z,17.30
2018-12-05T01:07:58.127Z,17.30
2018-12-05T01:10:28.364Z,17.20
2018-12-05T01:12:57.661Z,17.20
2018-12-05T01:15:26.955Z,17.20
2018-12-05T01:18:01.219Z,17.20
2018-12-05T01:20:30.508Z,17.20
2018-12-05T01:22:59.863Z,17.20
2018-12-05T01:25:29.131Z,17.20
2018-12-05T01:27:58.485Z,17.20
2018-12-05T01:30:27.807Z,17.20
2018-12-05T01:32:57.143Z,17.20
2018-12-05T01:35:26.480Z,17.30
2018-12-05T01:37:55.755Z,17.30
2018-12-05T01:40:25.049Z,17.20
2018-12-05T01:42:54.289Z,17.20
2018-12-05T01:45:23.558Z,17.20
2018-12-05T01:47:53.233Z,17.20
2018-12-05T01:50:22.548Z,17.20
2018-12-05T01:52:51.818Z,17.20
2018-12-05T01:55:21.172Z,17.20
2018-12-05T01:57:55.019Z,17.20
2018-12-05T02:00:24.320Z,17.20
2018-12-05T02:02:53.579Z,17.20
2018-12-05T02:05:23.455Z,17.20
2018-12-05T02:07:52.850Z,17.20
2018-12-05T02:10:22.226Z,17.20
2018-12-05T02:12:51.516Z,17.20
2018-12-05T02:15:20.852Z,17.20
2018-12-05T02:17:51.175Z,17.20
2018-12-05T02:20:22.321Z,17.10
2018-12-05T02:22:51.661Z,17.10
2018-12-05T02:25:22.098Z,17.20
2018-12-05T02:27:52.287Z,17.10
2018-12-05T02:30:22.722Z,17.10
2018-12-05T02:33:00.677Z,17.10
2018-12-05T02:35:31.107Z,17.10
2018-12-05T02:38:09.220Z,17.10
2018-12-05T02:40:48.760Z,17.20
2018-12-05T02:43:18.018Z,17.10
2018-12-05T02:46:14.148Z,17.10
2018-12-05T02:48:53.863Z,17.10
2018-12-05T02:51:23.169Z,17.10
2018-12-05T02:53:52.409Z,17.00
2018-12-05T05:12:36.035Z,16.50
2018-12-05T09:36:59.618Z,16.30
2018-12-05T09:39:28.933Z,16.50
2018-12-05T09:41:58.141Z,19.20
2018-12-05T09:44:27.404Z,19.20
2018-12-05T09:46:56.617Z,19.20
2018-12-05T09:49:25.861Z,19.20
2018-12-05T09:51:55.078Z,19.10
2018-12-05T09:54:24.305Z,19.00
2018-12-05T09:56:53.504Z,19.00
2018-12-05T09:59:22.739Z,19.00
2018-12-05T10:01:51.950Z,19.00
2018-12-05T10:04:21.221Z,18.90
2018-12-05T10:06:50.444Z,18.90
2018-12-05T10:09:19.637Z,18.90
2018-12-05T10:11:48.876Z,18.90
2018-12-05T10:14:18.075Z,19.00
2018-12-05T10:16:47.314Z,19.00
2018-12-05T10:19:16.526Z,19.00
2018-12-05T10:21:45.758Z,19.00
2018-12-05T10:24:14.953Z,19.00
2018-12-05T10:27:14.576Z,19.00
2018-12-05T10:29:43.809Z,19.00
2018-12-05T10:32:13.188Z,19.10
2018-12-05T10:34:42.438Z,19.10
2018-12-05T10:37:11.661Z,19.20
2018-12-05T10:39:40.872Z,19.20
2018-12-05T10:42:10.115Z,19.20
2018-12-05T10:44:39.378Z,19.20
2018-12-05T10:47:08.726Z,19.20
2018-12-05T10:49:38.141Z,19.30
2018-12-05T10:52:07.355Z,19.30
2018-12-05T10:54:36.619Z,19.30
2018-12-05T10:57:05.866Z,19.40
2018-12-05T10:59:35.154Z,19.40
2018-12-05T11:02:09.556Z,19.50
2018-12-05T11:04:43.809Z,19.50
2018-12-05T11:07:18.016Z,19.60
2018-12-05T11:09:52.401Z,19.70
2018-12-05T11:12:26.717Z,19.70
2018-12-05T11:15:01.148Z,19.80
2018-12-05T11:17:50.005Z,19.80
2018-12-05T11:20:24.408Z,19.90
2018-12-05T11:22:58.584Z,19.90
2018-12-05T11:25:27.814Z,19.90
2018-12-05T11:27:57.038Z,19.90
2018-12-05T11:30:26.276Z,19.90
2018-12-05T11:32:55.429Z,20.00
2018-12-05T11:35:24.647Z,20.10
2018-12-05T11:37:53.834Z,20.10
2018-12-05T11:40:23.065Z,20.20
2018-12-05T11:42:52.284Z,20.30
2018-12-05T11:45:21.468Z,20.30
2018-12-05T11:47:50.738Z,20.40
2018-12-05T11:50:20.013Z,20.40
2018-12-05T11:52:49.212Z,20.40
2018-12-05T11:55:18.487Z,20.40
2018-12-05T11:57:47.780Z,20.30
2018-12-05T12:00:17.045Z,20.30
2018-12-05T12:02:46.257Z,20.30
2018-12-05T12:05:15.577Z,20.30
2018-12-05T12:07:44.868Z,20.20
2018-12-05T12:10:14.621Z,20.10
2018-12-05T12:12:49.017Z,20.10
2018-12-05T12:15:18.232Z,20.10
2018-12-05T12:17:47.502Z,20.10
2018-12-05T12:20:16.729Z,20.10
2018-12-05T12:22:45.940Z,20.10
2018-12-05T12:25:15.177Z,20.20
2018-12-05T12:27:44.385Z,20.20
2018-12-05T12:30:16.034Z,20.10
2018-12-05T12:32:44.800Z,20.20
2018-12-05T12:35:13.962Z,20.10
2018-12-05T12:37:43.175Z,20.10
2018-12-05T12:40:12.377Z,20.10
2018-12-05T12:42:41.590Z,20.10
2018-12-05T12:45:10.968Z,20.20
2018-12-05T12:47:40.173Z,20.20
2018-12-05T12:50:09.447Z,20.30
2018-12-05T12:52:38.645Z,20.30
2018-12-05T12:55:07.901Z,20.20
2018-12-05T12:57:37.121Z,20.30
2018-12-05T13:00:07.869Z,20.30
2018-12-05T13:02:37.081Z,20.20
2018-12-05T13:05:06.487Z,20.20
2018-12-05T13:07:35.776Z,20.10
2018-12-05T13:10:05.465Z,20.00
2018-12-05T13:12:34.804Z,20.00
2018-12-05T13:15:04.207Z,20.00
2018-12-05T13:17:33.458Z,20.00
2018-12-05T13:20:02.760Z,19.90
2018-12-05T13:22:32.063Z,19.80
2018-12-05T13:25:01.295Z,19.80
2018-12-05T13:27:30.508Z,19.80
2018-12-05T13:29:59.834Z,19.80
2018-12-05T13:32:29.117Z,19.80
2018-12-05T13:34:58.443Z,19.90
2018-12-05T13:37:27.691Z,19.90
2018-12-05T13:39:56.961Z,19.90
2018-12-05T13:42:26.226Z,20.00
2018-12-05T13:44:55.595Z,20.00
2018-12-05T13:47:24.831Z,20.00
2018-12-05T13:49:54.113Z,20.10
2018-12-05T13:52:23.395Z,20.00
2018-12-05T13:54:52.682Z,20.00
2018-12-05T13:57:22.733Z,20.00
2018-12-05T13:59:52.044Z,20.00
2018-12-05T14:02:21.287Z,20.00
2018-12-05T14:04:50.684Z,20.00
2018-12-05T14:07:19.911Z,20.00
2018-12-05T14:09:49.186Z,20.00
2018-12-05T14:12:23.540Z,20.00
2018-12-05T14:14:52.891Z,20.10
2018-12-05T14:17:22.168Z,20.10
2018-12-05T14:19:51.554Z,20.00
2018-12-05T14:22:20.862Z,20.10
2018-12-05T14:24:50.106Z,20.10
2018-12-05T14:27:19.402Z,20.10
2018-12-05T14:29:48.633Z,20.10
2018-12-05T14:32:17.994Z,20.10
2018-12-05T14:34:47.278Z,20.10
2018-12-05T14:37:16.573Z,20.00
2018-12-05T14:39:45.881Z,20.00
2018-12-05T14:42:15.207Z,20.00
2018-12-05T14:44:44.617Z,20.00
2018-12-05T14:47:13.887Z,20.00
2018-12-05T14:49:43.178Z,20.00
2018-12-05T14:52:12.632Z,20.00
2018-12-05T14:54:41.982Z,20.00
2018-12-05T14:57:11.332Z,20.00
2018-12-05T14:59:40.578Z,20.00
2018-12-05T15:02:10.002Z,19.90
2018-12-05T15:04:40.244Z,19.90
2018-12-05T15:07:09.531Z,19.90
2018-12-05T15:09:38.879Z,19.90
2018-12-05T15:12:08.155Z,19.90
2018-12-05T15:14:37.432Z,19.90
2018-12-05T15:17:06.684Z,19.80
2018-12-05T15:19:36.011Z,19.80
2018-12-05T15:22:05.540Z,19.80
2018-12-05T15:24:35.005Z,19.80
2018-12-05T15:27:04.340Z,19.80
2018-12-05T15:29:33.919Z,19.80
2018-12-05T15:32:04.678Z,19.70
2018-12-05T15:34:34.261Z,19.60
2018-12-05T15:37:10.364Z,19.50
2018-12-05T15:39:39.677Z,19.60
2018-12-05T15:42:09.137Z,19.50
2018-12-05T15:44:39.748Z,19.40
2018-12-05T15:47:10.230Z,19.40
2018-12-05T15:49:39.620Z,19.30
2018-12-05T15:52:08.991Z,19.30
2018-12-05T15:54:38.447Z,19.30
2018-12-05T15:57:10.021Z,19.20
2018-12-05T15:59:39.510Z,19.20
2018-12-05T16:02:08.833Z,19.20
2018-12-05T16:04:38.167Z,19.20
2018-12-05T16:07:07.669Z,19.10
2018-12-05T16:09:37.212Z,19.20
2018-12-05T16:12:06.604Z,19.10
2018-12-05T16:14:36.042Z,19.10
2018-12-05T16:17:05.436Z,19.10
2018-12-05T16:19:35.060Z,19.10
2018-12-05T16:22:04.625Z,19.10
2018-12-05T16:24:33.967Z,19.10
2018-12-05T16:27:03.346Z,19.00
2018-12-05T16:29:32.726Z,19.00
2018-12-05T16:32:02.093Z,19.00
2018-12-05T16:34:31.379Z,19.10
2018-12-05T16:37:00.793Z,19.00
2018-12-05T16:39:30.231Z,19.10
2018-12-05T16:41:59.736Z,19.10
2018-12-05T16:44:29.093Z,19.10
2018-12-05T16:46:58.466Z,19.10
2018-12-05T16:49:27.837Z,19.10
2018-12-05T16:51:57.153Z,19.10
2018-12-05T16:54:26.802Z,19.10
2018-12-05T16:56:56.105Z,19.10
2018-12-05T16:59:25.370Z,19.10
2018-12-05T17:01:54.675Z,19.10
2018-12-05T17:04:23.969Z,19.10
2018-12-05T17:06:53.232Z,19.10
2018-12-05T17:09:25.969Z,19.10
2018-12-05T17:11:53.939Z,19.20
2018-12-05T17:14:23.165Z,19.10
2018-12-05T17:16:52.392Z,19.10
2018-12-05T17:19:21.642Z,19.10
2018-12-05T17:21:52.170Z,19.10
2018-12-05T17:24:21.432Z,19.00
2018-12-05T17:26:50.655Z,19.00
2018-12-05T17:29:19.923Z,19.00
2018-12-05T17:31:49.208Z,19.00
2018-12-05T17:34:18.494Z,19.10
2018-12-05T17:36:48.772Z,19.10
2018-12-05T17:39:18.964Z,19.10
2018-12-05T17:41:48.203Z,19.00
2018-12-05T17:44:17.451Z,19.10
2018-12-05T17:46:46.729Z,19.10
2018-12-05T17:49:16.168Z,19.10
2018-12-05T17:51:45.403Z,19.10
2018-12-05T17:54:15.157Z,19.10
2018-12-05T17:56:44.730Z,19.10
2018-12-05T17:59:14.015Z,19.10
2018-12-05T18:01:44.304Z,19.00
2018-12-05T18:04:13.889Z,19.00
2018-12-05T18:06:43.099Z,19.00
2018-12-05T18:09:12.444Z,19.10
2018-12-05T18:11:41.906Z,19.10
2018-12-05T18:14:11.183Z,19.00
2018-12-05T18:16:40.450Z,19.00
2018-12-05T18:19:09.803Z,19.00
2018-12-05T18:21:39.074Z,19.00
2018-12-05T18:24:08.827Z,19.00
2018-12-05T18:26:38.242Z,19.00
2018-12-05T18:29:07.542Z,18.90
2018-12-05T18:31:36.805Z,18.90
2018-12-05T18:34:06.116Z,18.90
2018-12-05T18:36:35.452Z,18.90
2018-12-05T18:39:07.219Z,18.90
2018-12-05T18:41:36.553Z,18.90
2018-12-05T18:44:05.935Z,18.90
2018-12-05T18:46:35.222Z,18.80
2018-12-05T18:49:04.608Z,18.90
2018-12-05T18:51:33.985Z,18.80
2018-12-05T18:54:03.382Z,18.80
2018-12-05T18:56:32.782Z,18.80
2018-12-05T18:59:02.094Z,18.70
2018-12-05T19:01:31.428Z,18.70
2018-12-05T19:04:00.758Z,18.70
2018-12-05T19:06:30.093Z,18.70
2018-12-05T19:08:59.502Z,18.70
2018-12-05T19:11:29.070Z,18.70
2018-12-05T19:14:03.405Z,18.70
2018-12-05T19:16:32.714Z,18.70
2018-12-05T19:19:02.119Z,18.70
2018-12-05T19:21:31.465Z,18.70
2018-12-05T19:24:00.765Z,18.60
2018-12-05T19:26:30.176Z,18.60
2018-12-05T19:29:00.422Z,18.60
2018-12-05T19:31:29.798Z,18.60
2018-12-05T19:33:59.238Z,18.60
2018-12-05T19:36:28.724Z,18.50
2018-12-05T19:38:58.162Z,18.50
2018-12-05T19:41:27.627Z,18.50
2018-12-05T19:43:57.123Z,18.50
2018-12-05T19:46:26.485Z,18.50
2018-12-05T19:48:55.864Z,18.50
2018-12-05T19:51:25.327Z,18.50
2018-12-05T19:53:54.601Z,18.50
2018-12-05T19:56:24.032Z,18.40
2018-12-05T19:58:53.785Z,18.40
2018-12-05T20:01:23.586Z,18.40
2018-12-05T20:03:52.928Z,18.40
2018-12-05T20:06:23.521Z,18.40
2018-12-05T20:08:54.322Z,18.40
2018-12-05T20:11:33.283Z,18.40
2018-12-05T20:14:04.588Z,18.40
2018-12-05T20:16:38.723Z,18.30
2018-12-05T20:19:14.056Z,18.30
2018-12-05T20:21:46.816Z,18.30
2018-12-05T20:24:16.240Z,18.30
2018-12-05T20:26:45.818Z,18.20
2018-12-05T20:29:15.580Z,18.20
2018-12-05T20:31:44.899Z,18.10
2018-12-05T20:34:14.191Z,18.20
2018-12-05T20:36:43.588Z,18.10
2018-12-05T20:39:12.956Z,18.10
2018-12-05T20:42:21.650Z,18.10
2018-12-05T20:44:50.946Z,18.10
2018-12-05T20:48:23.111Z,18.00
2018-12-05T20:50:52.617Z,18.00
2018-12-05T20:53:21.949Z,18.00
2018-12-05T20:55:51.173Z,18.00
2018-12-05T20:58:20.417Z,18.00
2018-12-05T21:00:49.666Z,18.00
2018-12-05T21:03:19.061Z,17.90
2018-12-05T21:05:48.453Z,17.90
2018-12-05T21:08:17.777Z,17.90
2018-12-05T21:10:47.076Z,17.90
2018-12-05T21:13:16.365Z,17.90
2018-12-05T21:15:45.729Z,17.90
2018-12-05T21:18:15.017Z,17.90
2018-12-05T21:20:45.015Z,17.80
2018-12-05T21:23:15.312Z,17.90
2018-12-05T21:25:44.863Z,17.90
2018-12-05T21:28:14.706Z,17.80
2018-12-05T21:30:43.974Z,17.80
2018-12-05T21:33:13.350Z,17.80
2018-12-05T21:35:42.672Z,17.80
2018-12-05T21:38:12.033Z,17.80
2018-12-05T21:40:41.398Z,17.70
2018-12-05T21:43:10.722Z,17.70
2018-12-05T21:45:39.981Z,17.70
2018-12-05T21:48:09.297Z,17.70
2018-12-05T21:50:38.618Z,17.70
2018-12-05T21:53:07.956Z,17.70
2018-12-05T21:55:37.274Z,17.70
2018-12-05T21:58:07.530Z,17.70
2018-12-05T22:00:36.852Z,17.60
2018-12-05T22:03:06.190Z,17.60
2018-12-05T22:05:40.321Z,17.50
2018-12-05T22:08:09.629Z,17.60
2018-12-05T22:10:38.926Z,17.60
2018-12-05T22:13:08.206Z,17.50
2018-12-05T22:15:37.473Z,17.50
2018-12-05T22:18:06.784Z,17.50
2018-12-05T22:20:36.107Z,17.50
2018-12-05T22:23:05.521Z,17.50
2018-12-05T22:25:34.823Z,17.50
2018-12-05T22:28:05.160Z,17.50
2018-12-05T22:30:34.437Z,17.50
2018-12-05T22:33:04.542Z,17.40
2018-12-05T22:35:33.782Z,17.40
2018-12-05T22:38:03.025Z,17.40
2018-12-05T22:40:38.790Z,17.50
2018-12-05T22:43:08.042Z,17.40
2018-12-05T22:45:37.345Z,17.40
2018-12-05T22:48:06.601Z,17.40
2018-12-05T22:50:38.808Z,17.30
2018-12-05T22:53:08.990Z,17.40
2018-12-05T22:55:39.206Z,17.40
2018-12-05T22:58:22.402Z,17.40
2018-12-05T23:01:04.595Z,17.40
2018-12-05T23:03:33.849Z,17.30
2018-12-05T23:06:04.482Z,17.30
2018-12-05T23:08:48.246Z,17.30
2018-12-05T23:11:17.603Z,17.30
2018-12-05T23:13:47.745Z,17.30
2018-12-05T23:16:17.067Z,17.30
2018-12-05T23:18:46.343Z,17.30
2018-12-05T23:21:22.440Z,17.30
2018-12-05T23:45:12.928Z,17.10
2018-12-05T23:47:42.205Z,17.10
2018-12-05T23:50:11.463Z,17.10
2018-12-05T23:56:23.012Z,17.20
2018-12-05T23:58:52.321Z,17.10
